This demonstration page uses our WeatherBlox Daily Observations layout. Learn more.

Hourly Observations for November 3, 2016

Temp ( °F °C ) Dew Point ( °F °C ) Humidity (%) Winds ( mph kmh ) Pressure ( in mb ) Visibility ( mi km ) Precip ( " mm )
12:54 am 00:54 Clear 44 6.7 40 4.4 85 85 N 5 7 30.27 1025 10 16.0934 0 0
1:54 am 01:54 Clear 44 6.7 39 3.9 83 83 N 3 6 30.28 1025 10 16.0934 0 0
2:54 am 02:54 Clear 41 5 37 2.8 86 86 Calm 30.29 1026 10 16.0934 0 0
3:54 am 03:54 Clear 41 5 37 2.8 86 86 NNW 3 6 30.3 1026 10 16.0934 0 0
4:54 am 04:54 Clear 39 3.9 37 2.8 93 93 N 6 9 30.31 1026 10 16.0934 0 0
5:54 am 05:54 Clear 41 5 38 3.3 89 89 N 3 6 30.32 1027 10 16.0934 0 0
6:54 am 06:54 Clear 40 4.4 37 2.8 89 89 NNW 3 6 30.32 1027 10 16.0934 0 0
7:54 am 07:54 Clear 36 2.2 35 1.7 97 97 SSE 3 6 30.36 1028 10 16.0934 0 0
8:54 am 08:54 Sunny 42 5.6 39 3.9 89 89 Calm 30.37 1028 10 16.0934 0 0
9:54 am 09:54 Sunny 51 10.6 42 5.6 71 71 Calm 30.37 1029 10 16.0934 0 0
10:54 am 10:54 Sunny 60 15.6 46 7.8 60 60 Calm 30.36 1028 10 16.0934 0 0
11:54 am 11:54 Sunny 70 21.1 44 6.7 39 39 WNW 6 9 30.35 1028 10 16.0934 0 0
12:54 pm 12:54 Sunny 73 22.8 44 6.7 35 35 VRB 5 7 30.34 1027 10 16.0934 0 0
1:54 pm 13:54 Sunny 74 23.3 43 6.1 33 33 NNW 5 7 30.32 1027 10 16.0934 0 0
2:54 pm 14:54 Sunny 76 24.4 42 5.6 30 30 W 7 11 30.3 1026 10 16.0934 0 0
3:54 pm 15:54 Sunny 76 24.4 38 3.3 25 25 VRB 5 7 30.3 1026 10 16.0934 0 0
4:54 pm 16:54 Sunny 77 25 37 2.8 24 24 Calm 30.3 1026 10 16.0934 0 0
5:54 pm 17:54 Sunny 73 22.8 38 3.3 28 28 Calm 30.3 1026 10 16.0934 0 0
6:54 pm 18:54 Clear 60 15.6 41 5 50 50 Calm 30.33 1027 10 16.0934 0 0
7:54 pm 19:54 Clear 58 14.4 42 5.6 56 56 Calm 30.35 1028 8 12.87472 0 0
8:54 pm 20:54 Clear 53 11.7 43 6.1 69 69 Calm 30.35 1028 9 14.48406 0 0
9:54 pm 21:54 Clear 54 12.2 42 5.6 64 64 Calm 30.35 1028 10 16.0934 0 0
10:54 pm 22:54 Clear 46 7.8 40 4.4 79 79 Calm 30.36 1028 8 12.87472 0 0
11:54 pm 23:54 Clear 44 6.7 39 3.9 83 83 NNW 3 6 30.36 1028 8 12.87472 0 0

Powered by AerisWeather